Time;durP1;ratioP1;P1;durP2;ratioP2;P2;SDS_P1;SDS_P2;PMS_P1;PMS_P2;Temp;Humidity;BMP_temperature;BMP_pressure;BME280_temperature;BME280_humidity;BME280_pressure;Samples;Min_cycle;Max_cycle;Signal;HPM_P1;HPM_P2
2022/06/11 00:00:18;;;;;;;0.00;0.00;;;;;;;;;;5055623;28;20207;-62
2022/06/11 00:02:45;;;;;;;0.00;0.00;;;;;;;;;;5079214;28;20236;-62
2022/06/11 00:05:12;;;;;;;0.00;0.00;;;;;;;;;;5055721;28;20400;-63
2022/06/11 00:07:38;;;;;;;0.00;0.00;;;;;;;;;;5079357;28;20204;-63
2022/06/11 00:10:05;;;;;;;0.00;0.00;;;;;;;;;;5065010;28;20214;-62
2022/06/11 00:12:33;;;;;;;0.03;0.03;;;;;;;;;;5017151;28;20215;-63
2022/06/11 00:15:00;;;;;;;0.00;0.00;;;;;;;;;;5045096;28;20208;-62
2022/06/11 00:17:27;;;;;;;0.10;0.10;;;;;;;;;;5049849;28;20321;-62
2022/06/11 00:19:54;;;;;;;0.28;0.28;;;;;;;;;;5044706;28;20208;-62
2022/06/11 00:22:21;;;;;;;0.00;0.00;;;;;;;;;;5050024;28;20450;-63
2022/06/11 00:24:48;;;;;;;0.00;0.00;;;;;;;;;;5044703;28;20228;-62
2022/06/11 00:27:14;;;;;;;0.00;0.00;;;;;;;;;;5050006;28;20306;-62
2022/06/11 00:29:43;;;;;;;0.00;0.00;;;;;;;;;;5044661;28;20208;-62
2022/06/11 00:32:10;;;;;;;0.00;0.00;;;;;;;;;;5049711;28;20242;-62
2022/06/11 00:34:37;;;;;;;0.00;0.00;;;;;;;;;;5044480;28;20434;-63
2022/06/11 00:37:04;;;;;;;0.00;0.00;;;;;;;;;;5049683;28;20310;-62
2022/06/11 00:39:31;;;;;;;0.00;0.00;;;;;;;;;;5044127;28;20247;-61
2022/06/11 00:42:00;;;;;;;0.00;0.00;;;;;;;;;;5048666;28;20251;-63
2022/06/11 00:44:27;;;;;;;0.00;0.00;;;;;;;;;;5044719;28;20314;-63
2022/06/11 00:46:57;;;;;;;0.00;0.00;;;;;;;;;;5047956;28;20457;-61
2022/06/11 00:49:28;;;;;;;0.30;0.30;;;;;;;;;;5044753;28;20339;-63
2022/06/11 00:51:57;;;;;;;0.00;0.00;;;;;;;;;;5048122;28;20302;-63
2022/06/11 00:54:24;;;;;;;0.00;0.00;;;;;;;;;;5044528;28;20211;-63
2022/06/11 00:56:52;;;;;;;0.00;0.00;;;;;;;;;;5046781;28;20253;-62
2022/06/11 00:59:22;;;;;;;0.55;0.55;;;;;;;;;;5045196;28;20206;-63
2022/06/11 01:01:49;;;;;;;0.00;0.00;;;;;;;;;;5047223;28;20265;-62
2022/06/11 01:04:33;;;;;;;0.00;0.00;;;;;;;;;;5045827;28;20257;-63
2022/06/11 01:07:01;;;;;;;0.10;0.10;;;;;;;;;;5048181;28;20589;-64
2022/06/11 01:09:30;;;;;;;0.00;0.00;;;;;;;;;;5044185;28;20216;-63
2022/06/11 01:12:07;;;;;;;0.00;0.00;;;;;;;;;;5047848;28;20306;-66
2022/06/11 01:14:40;;;;;;;0.00;0.00;;;;;;;;;;5043681;28;20464;-62
2022/06/11 01:17:11;;;;;;;0.10;0.10;;;;;;;;;;5048845;28;20363;-62
2022/06/11 01:19:57;;;;;;;0.00;0.00;;;;;;;;;;5043608;28;20212;-62
2022/06/11 01:22:35;;;;;;;0.00;0.00;;;;;;;;;;5048855;28;20296;-62
2022/06/11 01:25:05;;;;;;;0.28;0.28;;;;;;;;;;5043440;28;20578;-63
2022/06/11 01:27:47;;;;;;;0.00;0.00;;;;;;;;;;5035652;28;20220;-63
2022/06/11 01:30:15;;;;;;;0.03;0.03;;;;;;;;;;5054080;28;20237;-63
2022/06/11 01:32:46;;;;;;;0.00;0.00;;;;;;;;;;5077166;28;20383;-62
2022/06/11 01:35:18;;;;;;;0.00;0.00;;;;;;;;;;5054046;28;20196;-62
2022/06/11 01:37:47;;;;;;;0.00;0.00;;;;;;;;;;5076670;28;20581;-62
2022/06/11 01:40:18;;;;;;;0.00;0.00;;;;;;;;;;5054040;28;20381;-62
2022/06/11 01:42:47;;;;;;;0.00;0.00;;;;;;;;;;5076853;28;20233;-62
2022/06/11 01:45:16;;;;;;;0.10;0.10;;;;;;;;;;5053511;28;20230;-62
2022/06/11 01:47:43;;;;;;;0.00;0.00;;;;;;;;;;5076899;28;20507;-62
2022/06/11 01:50:10;;;;;;;0.00;0.00;;;;;;;;;;5053033;28;20210;-63
2022/06/11 01:52:56;;;;;;;0.00;0.00;;;;;;;;;;5077464;28;20207;-62
2022/06/11 01:55:29;;;;;;;0.00;0.00;;;;;;;;;;5054670;28;20229;-62
2022/06/11 01:58:01;;;;;;;0.00;0.00;;;;;;;;;;5074959;28;20207;-63
2022/06/11 02:00:30;;;;;;;0.00;0.00;;;;;;;;;;5055180;28;20246;-62
2022/06/11 02:03:07;;;;;;;0.00;0.00;;;;;;;;;;5074944;28;20218;-64
2022/06/11 02:05:40;;;;;;;0.00;0.00;;;;;;;;;;5055993;28;20241;-64
2022/06/11 02:08:09;;;;;;;0.00;0.00;;;;;;;;;;5073357;28;20205;-62
2022/06/11 02:10:38;;;;;;;0.00;0.00;;;;;;;;;;5056191;28;20634;-62
2022/06/11 02:13:06;;;;;;;0.00;0.00;;;;;;;;;;5073827;28;20207;-62
2022/06/11 02:15:36;;;;;;;0.08;0.08;;;;;;;;;;5055619;28;20552;-63
2022/06/11 02:18:04;;;;;;;0.00;0.00;;;;;;;;;;5074248;28;20282;-64
2022/06/11 02:20:32;;;;;;;0.00;0.00;;;;;;;;;;5055691;28;20413;-63
2022/06/11 02:23:00;;;;;;;0.08;0.08;;;;;;;;;;5074535;28;20206;-63
2022/06/11 02:25:29;;;;;;;0.00;0.00;;;;;;;;;;5055139;28;20259;-63
2022/06/11 02:27:57;;;;;;;0.10;0.10;;;;;;;;;;5074809;28;20511;-63
2022/06/11 02:30:27;;;;;;;0.00;0.00;;;;;;;;;;5054497;28;20211;-63
2022/06/11 02:32:55;;;;;;;0.00;0.00;;;;;;;;;;5074991;28;20226;-62
2022/06/11 02:35:27;;;;;;;0.00;0.00;;;;;;;;;;5053881;28;20264;-63
2022/06/11 02:37:53;;;;;;;0.00;0.00;;;;;;;;;;5074838;28;20282;-63
2022/06/11 02:40:22;;;;;;;0.00;0.00;;;;;;;;;;5053818;28;20221;-63
2022/06/11 02:42:48;;;;;;;0.00;0.00;;;;;;;;;;5075285;28;20571;-63
2022/06/11 02:45:15;;;;;;;0.00;0.00;;;;;;;;;;5052870;28;20241;-62
2022/06/11 02:47:43;;;;;;;0.00;0.00;;;;;;;;;;5076551;28;20213;-62
2022/06/11 02:50:16;;;;;;;0.00;0.00;;;;;;;;;;5052445;28;20268;-62
2022/06/11 02:52:42;;;;;;;0.00;0.00;;;;;;;;;;5076313;28;20270;-64
2022/06/11 02:55:09;;;;;;;0.00;0.00;;;;;;;;;;5052313;28;20221;-62
2022/06/11 02:57:36;;;;;;;0.00;0.00;;;;;;;;;;5077373;28;20219;-63
2022/06/11 03:00:03;;;;;;;0.00;0.00;;;;;;;;;;5062554;28;20232;-64
2022/06/11 03:02:31;;;;;;;0.00;0.00;;;;;;;;;;5067509;28;20304;-63
2022/06/11 03:04:57;;;;;;;0.00;0.00;;;;;;;;;;5062342;28;20205;-62
2022/06/11 03:07:25;;;;;;;0.00;0.00;;;;;;;;;;5067535;28;20268;-62
2022/06/11 03:09:51;;;;;;;0.00;0.00;;;;;;;;;;5062419;28;20206;-63
2022/06/11 03:12:18;;;;;;;0.00;0.00;;;;;;;;;;5067540;28;20239;-62
2022/06/11 03:14:45;;;;;;;0.00;0.00;;;;;;;;;;5061950;28;20215;-62
2022/06/11 03:17:12;;;;;;;0.00;0.00;;;;;;;;;;5067033;28;20237;-63
2022/06/11 03:19:39;;;;;;;0.00;0.00;;;;;;;;;;5063122;28;20276;-63
2022/06/11 03:22:07;;;;;;;0.00;0.00;;;;;;;;;;5070978;28;20611;-62
2022/06/11 03:24:35;;;;;;;0.10;0.10;;;;;;;;;;5065722;28;20233;-62
2022/06/11 03:27:01;;;;;;;0.00;0.00;;;;;;;;;;5069810;28;20251;-62
2022/06/11 03:29:28;;;;;;;0.00;0.00;;;;;;;;;;5066192;28;20508;-63
2022/06/11 03:31:55;;;;;;;0.05;0.05;;;;;;;;;;5069289;28;20240;-62
2022/06/11 03:34:21;;;;;;;0.00;0.00;;;;;;;;;;5066589;28;20207;-63
2022/06/11 03:36:48;;;;;;;0.00;0.00;;;;;;;;;;5068697;28;20256;-63
2022/06/11 03:39:16;;;;;;;0.10;0.10;;;;;;;;;;5067787;28;20285;-63
2022/06/11 03:41:44;;;;;;;0.03;0.03;;;;;;;;;;5067690;28;20246;-63
2022/06/11 03:44:11;;;;;;;0.00;0.00;;;;;;;;;;5067960;28;20207;-63
2022/06/11 03:46:37;;;;;;;0.10;0.10;;;;;;;;;;5066874;28;20244;-61
2022/06/11 03:49:04;;;;;;;0.10;0.10;;;;;;;;;;5068779;28;20371;-63
2022/06/11 03:51:30;;;;;;;0.00;0.00;;;;;;;;;;5065988;28;20244;-63
2022/06/11 03:53:56;;;;;;;0.00;0.00;;;;;;;;;;5069691;28;20214;-62
2022/06/11 03:56:24;;;;;;;0.00;0.00;;;;;;;;;;5064311;28;20240;-62
2022/06/11 03:58:52;;;;;;;0.10;0.10;;;;;;;;;;5070527;28;20223;-62
2022/06/11 04:01:19;;;;;;;0.00;0.00;;;;;;;;;;5063345;28;20571;-62
2022/06/11 04:03:48;;;;;;;0.10;0.10;;;;;;;;;;5071137;28;20267;-62
2022/06/11 04:06:14;;;;;;;0.10;0.10;;;;;;;;;;5062069;28;20307;-62
2022/06/11 04:08:41;;;;;;;0.00;0.00;;;;;;;;;;5072259;28;20209;-63
2022/06/11 04:11:08;;;;;;;0.00;0.00;;;;;;;;;;5062903;28;20586;-62
2022/06/11 04:13:35;;;;;;;0.00;0.00;;;;;;;;;;5071863;28;20205;-62
2022/06/11 04:16:04;;;;;;;0.00;0.00;;;;;;;;;;5061737;28;20307;-62
2022/06/11 04:18:32;;;;;;;0.00;0.00;;;;;;;;;;5072848;28;20207;-62
2022/06/11 04:20:59;;;;;;;0.00;0.00;;;;;;;;;;5061533;28;20622;-62
2022/06/11 04:23:29;;;;;;;0.00;0.00;;;;;;;;;;5072956;28;20220;-62
2022/06/11 04:25:56;;;;;;;0.00;0.00;;;;;;;;;;5061041;28;20309;-62
2022/06/11 04:28:22;;;;;;;0.00;0.00;;;;;;;;;;5073215;28;20300;-63
2022/06/11 04:30:49;;;;;;;0.00;0.00;;;;;;;;;;5059371;28;20257;-62
2022/06/11 04:33:16;;;;;;;0.00;0.00;;;;;;;;;;5073776;28;20398;-63
2022/06/11 04:35:43;;;;;;;0.00;0.00;;;;;;;;;;5058909;28;20489;-63
2022/06/11 04:38:09;;;;;;;0.00;0.00;;;;;;;;;;5075100;28;20279;-61
2022/06/11 04:40:35;;;;;;;0.00;0.00;;;;;;;;;;5058050;28;20281;-62
2022/06/11 04:43:02;;;;;;;0.00;0.00;;;;;;;;;;5076016;28;20520;-62
2022/06/11 04:45:28;;;;;;;0.00;0.00;;;;;;;;;;5056945;28;20248;-63
2022/06/11 04:47:54;;;;;;;0.00;0.00;;;;;;;;;;5076491;28;20274;-62
2022/06/11 04:50:22;;;;;;;0.00;0.00;;;;;;;;;;5055876;28;20279;-62
2022/06/11 04:52:48;;;;;;;0.00;0.00;;;;;;;;;;5077117;28;20210;-63
2022/06/11 04:55:15;;;;;;;0.08;0.08;;;;;;;;;;5054896;28;20219;-63
2022/06/11 04:57:43;;;;;;;0.00;0.00;;;;;;;;;;5078008;28;20252;-63
2022/06/11 05:00:10;;;;;;;0.00;0.00;;;;;;;;;;5054394;28;20212;-62
2022/06/11 05:02:37;;;;;;;0.00;0.00;;;;;;;;;;5078630;28;20243;-62
2022/06/11 05:05:04;;;;;;;0.00;0.00;;;;;;;;;;5064010;28;20208;-63
2022/06/11 05:07:31;;;;;;;0.00;0.00;;;;;;;;;;5035471;28;20226;-62
2022/06/11 05:09:58;;;;;;;0.10;0.10;;;;;;;;;;5063322;28;20406;-63
2022/06/11 05:12:24;;;;;;;0.00;0.00;;;;;;;;;;5068975;28;20245;-63
2022/06/11 05:14:50;;;;;;;0.08;0.08;;;;;;;;;;5063703;28;20231;-63
2022/06/11 05:17:17;;;;;;;0.00;0.00;;;;;;;;;;5068749;28;20433;-63
2022/06/11 05:19:43;;;;;;;0.00;0.00;;;;;;;;;;5063472;28;20207;-62
2022/06/11 05:22:10;;;;;;;0.00;0.00;;;;;;;;;;5068909;28;20249;-66
2022/06/11 05:24:38;;;;;;;0.00;0.00;;;;;;;;;;5063069;28;20208;-64
2022/06/11 05:27:07;;;;;;;0.00;0.00;;;;;;;;;;5068308;28;20233;-62
2022/06/11 05:29:35;;;;;;;0.00;0.00;;;;;;;;;;5063232;28;20205;-62
2022/06/11 05:32:01;;;;;;;0.10;0.10;;;;;;;;;;5068327;28;20509;-63
2022/06/11 05:34:28;;;;;;;0.05;0.05;;;;;;;;;;5064061;28;20205;-62
2022/06/11 05:36:55;;;;;;;0.00;0.00;;;;;;;;;;5067105;28;20234;-62
2022/06/11 05:39:21;;;;;;;0.00;0.00;;;;;;;;;;5064505;28;20519;-63
2022/06/11 05:41:49;;;;;;;0.10;0.10;;;;;;;;;;5066209;28;20487;-61
2022/06/11 05:44:16;;;;;;;0.00;0.00;;;;;;;;;;5065107;28;20377;-62
2022/06/11 05:46:43;;;;;;;0.00;0.00;;;;;;;;;;5065312;28;20233;-61
2022/06/11 05:49:14;;;;;;;0.00;0.00;;;;;;;;;;5065839;28;20278;-62
2022/06/11 05:51:42;;;;;;;0.00;0.00;;;;;;;;;;5065291;28;20587;-62
2022/06/11 05:54:10;;;;;;;0.10;0.10;;;;;;;;;;5066023;28;20277;-62
2022/06/11 05:56:37;;;;;;;0.00;0.00;;;;;;;;;;5064464;28;20238;-63
2022/06/11 05:59:08;;;;;;;0.00;0.00;;;;;;;;;;5066613;28;20207;-63
2022/06/11 06:01:36;;;;;;;0.00;0.00;;;;;;;;;;5063864;28;20249;-63
2022/06/11 06:04:03;;;;;;;0.00;0.00;;;;;;;;;;5066839;28;20207;-64
2022/06/11 06:06:30;;;;;;;0.00;0.00;;;;;;;;;;5063325;28;20240;-62
2022/06/11 06:08:57;;;;;;;0.00;0.00;;;;;;;;;;5067207;28;20241;-62
2022/06/11 06:11:23;;;;;;;0.00;0.00;;;;;;;;;;5062905;28;20241;-62
2022/06/11 06:13:50;;;;;;;0.10;0.10;;;;;;;;;;5067888;28;20207;-63
2022/06/11 06:16:18;;;;;;;0.00;0.00;;;;;;;;;;5061035;28;20245;-62
2022/06/11 06:18:45;;;;;;;0.00;0.00;;;;;;;;;;5068215;28;20234;-61
2022/06/11 06:21:11;;;;;;;0.00;0.00;;;;;;;;;;5060553;28;20241;-63
2022/06/11 06:23:38;;;;;;;0.00;0.00;;;;;;;;;;5069283;28;20232;-62
2022/06/11 06:26:04;;;;;;;0.00;0.00;;;;;;;;;;5058988;28;20317;-63
2022/06/11 06:28:31;;;;;;;0.00;0.00;;;;;;;;;;5070502;28;20265;-63
2022/06/11 06:30:59;;;;;;;0.00;0.00;;;;;;;;;;5058865;28;20455;-63
2022/06/11 06:33:27;;;;;;;0.10;0.10;;;;;;;;;;5070376;28;20218;-63
2022/06/11 06:35:54;;;;;;;0.00;0.00;;;;;;;;;;5058305;28;20555;-61
2022/06/11 06:38:20;;;;;;;0.00;0.00;;;;;;;;;;5071350;28;20209;-62
2022/06/11 06:40:46;;;;;;;0.00;0.00;;;;;;;;;;5057227;28;20242;-62
2022/06/11 06:43:13;;;;;;;0.00;0.00;;;;;;;;;;5071878;28;20256;-62
2022/06/11 06:45:39;;;;;;;0.10;0.10;;;;;;;;;;5056059;28;20260;-62
2022/06/11 06:48:06;;;;;;;0.10;0.10;;;;;;;;;;5073058;28;20231;-63
2022/06/11 06:50:33;;;;;;;0.00;0.00;;;;;;;;;;5055344;28;20242;-62
2022/06/11 06:53:00;;;;;;;0.08;0.08;;;;;;;;;;5073760;28;20562;-66
2022/06/11 06:55:26;;;;;;;0.00;0.00;;;;;;;;;;5056646;28;20372;-68
2022/06/11 06:57:53;;;;;;;0.00;0.00;;;;;;;;;;5078405;28;20237;-68
2022/06/11 07:00:19;;;;;;;0.00;0.00;;;;;;;;;;5057372;28;20279;-67
2022/06/11 07:02:46;;;;;;;0.00;0.00;;;;;;;;;;5079522;28;20204;-67
2022/06/11 07:05:13;;;;;;;0.00;0.00;;;;;;;;;;5056462;28;20273;-67
2022/06/11 07:07:41;;;;;;;0.10;0.10;;;;;;;;;;5080067;28;20611;-66
2022/06/11 07:10:08;;;;;;;0.03;0.03;;;;;;;;;;5056144;28;20207;-67
2022/06/11 07:12:34;;;;;;;0.00;0.00;;;;;;;;;;5080604;28;20243;-67
2022/06/11 07:15:01;;;;;;;0.00;0.00;;;;;;;;;;5066072;28;20449;-66
2022/06/11 07:17:28;;;;;;;0.00;0.00;;;;;;;;;;5070839;28;20242;-66
2022/06/11 07:19:59;;;;;;;0.00;0.00;;;;;;;;;;5065672;28;20207;-66
2022/06/11 07:22:28;;;;;;;0.00;0.00;;;;;;;;;;5070972;28;20253;-65
2022/06/11 07:24:55;;;;;;;0.00;0.00;;;;;;;;;;5065480;28;20214;-66
2022/06/11 07:27:24;;;;;;;0.00;0.00;;;;;;;;;;5070166;28;20296;-66
2022/06/11 07:29:53;;;;;;;0.00;0.00;;;;;;;;;;5065135;28;20282;-68
2022/06/11 07:32:20;;;;;;;0.00;0.00;;;;;;;;;;5070514;28;20243;-67
2022/06/11 07:34:47;;;;;;;0.00;0.00;;;;;;;;;;5064888;28;20483;-66
2022/06/11 07:37:14;;;;;;;0.00;0.00;;;;;;;;;;5070339;28;20280;-67
2022/06/11 07:39:40;;;;;;;0.08;0.08;;;;;;;;;;5065330;28;20502;-67
2022/06/11 07:42:10;;;;;;;0.00;0.00;;;;;;;;;;5070280;28;20253;-67
2022/06/11 07:44:36;;;;;;;0.00;0.00;;;;;;;;;;5064951;28;20235;-68
2022/06/11 07:47:02;;;;;;;0.00;0.00;;;;;;;;;;5069232;28;20325;-67
2022/06/11 07:49:29;;;;;;;0.00;0.00;;;;;;;;;;5065242;28;20299;-67
2022/06/11 07:51:55;;;;;;;0.00;0.00;;;;;;;;;;5068997;28;20323;-66
2022/06/11 07:54:22;;;;;;;0.00;0.00;;;;;;;;;;5065958;28;20207;-67
2022/06/11 07:56:48;;;;;;;0.00;0.00;;;;;;;;;;5067550;28;20389;-67
2022/06/11 07:59:16;;;;;;;0.00;0.00;;;;;;;;;;5066838;28;20254;-67
2022/06/11 08:01:42;;;;;;;0.00;0.00;;;;;;;;;;5066996;28;20239;-70
2022/06/11 08:04:12;;;;;;;0.00;0.00;;;;;;;;;;5067985;28;20203;-70
2022/06/11 08:06:39;;;;;;;0.00;0.00;;;;;;;;;;5065806;28;20235;-69
2022/06/11 08:09:05;;;;;;;0.00;0.00;;;;;;;;;;5068521;28;20226;-71
2022/06/11 08:11:31;;;;;;;0.00;0.00;;;;;;;;;;5065385;28;20245;-70
2022/06/11 08:13:58;;;;;;;0.00;0.00;;;;;;;;;;5069128;28;20216;-69
2022/06/11 08:16:25;;;;;;;0.00;0.00;;;;;;;;;;5064448;28;20245;-70
2022/06/11 08:18:52;;;;;;;0.00;0.00;;;;;;;;;;5070040;28;20212;-70
2022/06/11 08:21:20;;;;;;;0.00;0.00;;;;;;;;;;5063387;28;20235;-70
2022/06/11 08:23:46;;;;;;;0.00;0.00;;;;;;;;;;5070535;28;20256;-70
2022/06/11 08:26:13;;;;;;;0.00;0.00;;;;;;;;;;5062782;28;20648;-70
2022/06/11 08:28:39;;;;;;;0.00;0.00;;;;;;;;;;5070652;28;20242;-70
2022/06/11 08:31:05;;;;;;;0.00;0.00;;;;;;;;;;5061635;28;20257;-71
2022/06/11 08:33:33;;;;;;;0.00;0.00;;;;;;;;;;5072136;28;20270;-69
2022/06/11 08:36:00;;;;;;;0.00;0.00;;;;;;;;;;5060934;28;20588;-69
2022/06/11 08:38:26;;;;;;;0.00;0.00;;;;;;;;;;5072507;28;20215;-70
2022/06/11 08:40:54;;;;;;;0.00;0.00;;;;;;;;;;5059870;28;20247;-69
2022/06/11 08:43:22;;;;;;;0.00;0.00;;;;;;;;;;5073222;28;20275;-69
2022/06/11 08:45:50;;;;;;;0.00;0.00;;;;;;;;;;5059457;28;20269;-70
2022/06/11 08:48:22;;;;;;;0.00;0.00;;;;;;;;;;5073422;28;20610;-70
2022/06/11 08:50:57;;;;;;;0.00;0.00;;;;;;;;;;5059622;28;20243;-71
2022/06/11 08:53:23;;;;;;;0.00;0.00;;;;;;;;;;5072527;28;20230;-71
2022/06/11 08:55:50;;;;;;;0.00;0.00;;;;;;;;;;5059351;28;20243;-72
2022/06/11 08:58:21;;;;;;;0.00;0.00;;;;;;;;;;5073602;28;20200;-72
2022/06/11 09:00:52;;;;;;;0.00;0.00;;;;;;;;;;5059438;28;20303;-73
2022/06/11 09:03:27;;;;;;;0.00;0.00;;;;;;;;;;5073181;28;20276;-72
2022/06/11 09:06:10;;;;;;;0.00;0.00;;;;;;;;;;5060109;28;20529;-72
2022/06/11 09:08:45;;;;;;;0.00;0.00;;;;;;;;;;5070854;28;20216;-70
2022/06/11 09:11:17;;;;;;;0.00;0.00;;;;;;;;;;5061864;28;20247;-70
2022/06/11 09:13:59;;;;;;;0.00;0.00;;;;;;;;;;5069881;28;20219;-72
2022/06/11 09:16:29;;;;;;;0.00;0.00;;;;;;;;;;5063649;28;20507;-72
2022/06/11 09:19:07;;;;;;;0.00;0.00;;;;;;;;;;5067662;28;20230;-73
2022/06/11 09:21:44;;;;;;;0.00;0.00;;;;;;;;;;5064617;28;20402;-71
2022/06/11 09:24:18;;;;;;;0.00;0.00;;;;;;;;;;5066200;28;20259;-74
2022/06/11 09:26:46;;;;;;;0.00;0.00;;;;;;;;;;5065860;28;20255;-71
2022/06/11 09:29:14;;;;;;;0.00;0.00;;;;;;;;;;5065599;28;20227;-73
2022/06/11 09:31:46;;;;;;;0.00;0.00;;;;;;;;;;5065217;28;20246;-72
2022/06/11 09:34:14;;;;;;;0.00;0.00;;;;;;;;;;5065317;28;20192;-72
2022/06/11 09:36:45;;;;;;;0.00;0.00;;;;;;;;;;5064949;28;20235;-73
2022/06/11 09:39:17;;;;;;;0.10;0.10;;;;;;;;;;5065438;28;20295;-74
2022/06/11 09:41:48;;;;;;;0.00;0.00;;;;;;;;;;5065323;28;20566;-73
2022/06/11 09:44:21;;;;;;;0.00;0.00;;;;;;;;;;5065175;28;20307;-72
2022/06/11 09:46:52;;;;;;;0.00;0.00;;;;;;;;;;5065603;28;20413;-73
2022/06/11 09:49:23;;;;;;;0.00;0.00;;;;;;;;;;5064849;28;20264;-73
2022/06/11 09:51:55;;;;;;;0.00;0.00;;;;;;;;;;5066090;28;20379;-72
2022/06/11 09:54:32;;;;;;;0.00;0.00;;;;;;;;;;5064184;28;20309;-73
2022/06/11 09:57:04;;;;;;;0.00;0.00;;;;;;;;;;5067010;28;20280;-73
2022/06/11 09:59:34;;;;;;;0.00;0.00;;;;;;;;;;5062679;28;20260;-74
2022/06/11 10:02:03;;;;;;;0.00;0.00;;;;;;;;;;5067339;28;20311;-72
2022/06/11 10:04:32;;;;;;;0.00;0.00;;;;;;;;;;5062711;28;20214;-72
2022/06/11 10:07:02;;;;;;;0.00;0.00;;;;;;;;;;5066688;28;20325;-72
2022/06/11 10:09:31;;;;;;;0.00;0.00;;;;;;;;;;5062883;28;20235;-73
2022/06/11 10:11:59;;;;;;;0.00;0.00;;;;;;;;;;5066690;28;20251;-72
2022/06/11 10:14:30;;;;;;;0.00;0.00;;;;;;;;;;5063547;28;20394;-74
2022/06/11 10:16:58;;;;;;;0.00;0.00;;;;;;;;;;5067170;28;20282;-74
2022/06/11 10:19:28;;;;;;;0.00;0.00;;;;;;;;;;5063729;28;20269;-74
2022/06/11 10:21:58;;;;;;;0.00;0.00;;;;;;;;;;5067046;28;20246;-74
2022/06/11 10:24:27;;;;;;;0.00;0.00;;;;;;;;;;5063620;28;20488;-73
2022/06/11 10:26:56;;;;;;;0.00;0.00;;;;;;;;;;5066493;28;20239;-74
2022/06/11 10:29:28;;;;;;;0.00;0.00;;;;;;;;;;5062675;28;20275;-74
2022/06/11 10:31:56;;;;;;;0.00;0.00;;;;;;;;;;5066633;28;20239;-74
2022/06/11 10:34:23;;;;;;;0.00;0.00;;;;;;;;;;5063562;28;20204;-74
2022/06/11 10:36:52;;;;;;;0.00;0.00;;;;;;;;;;5066031;28;20239;-73
2022/06/11 10:39:22;;;;;;;0.00;0.00;;;;;;;;;;5064719;28;20200;-74
2022/06/11 10:41:55;;;;;;;0.00;0.00;;;;;;;;;;5065854;28;20480;-74
2022/06/11 10:44:27;;;;;;;0.00;0.00;;;;;;;;;;5064105;28;20203;-74
2022/06/11 10:46:54;;;;;;;0.00;0.00;;;;;;;;;;5066115;28;20306;-74
2022/06/11 10:52:04;;;;;;;0.00;0.00;;;;;;;;;;5065849;28;20235;-74
2022/06/11 10:54:30;;;;;;;0.00;0.00;;;;;;;;;;5062335;28;20235;-72
2022/06/11 10:56:59;;;;;;;0.00;0.00;;;;;;;;;;5066391;28;20582;-70
2022/06/11 10:59:30;;;;;;;0.00;0.00;;;;;;;;;;5063583;28;20206;-74
2022/06/11 11:01:59;;;;;;;0.00;0.00;;;;;;;;;;5066627;28;20245;-75
2022/06/11 11:04:30;;;;;;;0.00;0.00;;;;;;;;;;5063208;28;20235;-74
2022/06/11 11:07:10;;;;;;;0.00;0.00;;;;;;;;;;5066213;28;20266;-75
2022/06/11 11:09:36;;;;;;;0.00;0.00;;;;;;;;;;5062493;28;20253;-73
2022/06/11 11:12:07;;;;;;;0.00;0.00;;;;;;;;;;5067604;28;20509;-73
2022/06/11 11:14:35;;;;;;;0.00;0.00;;;;;;;;;;5062463;28;20360;-75
2022/06/11 11:17:03;;;;;;;0.00;0.00;;;;;;;;;;5066819;28;20543;-72
2022/06/11 11:19:30;;;;;;;0.00;0.00;;;;;;;;;;5062785;28;20238;-74
2022/06/11 11:21:58;;;;;;;0.00;0.00;;;;;;;;;;5066721;28;20492;-72
2022/06/11 11:24:27;;;;;;;0.00;0.00;;;;;;;;;;5063306;28;20204;-74
2022/06/11 11:26:55;;;;;;;0.00;0.00;;;;;;;;;;5065184;28;20283;-74
2022/06/11 11:29:25;;;;;;;0.00;0.00;;;;;;;;;;5063893;28;20228;-74
2022/06/11 11:31:53;;;;;;;0.00;0.00;;;;;;;;;;5064121;28;20245;-74
2022/06/11 11:34:24;;;;;;;0.00;0.00;;;;;;;;;;5065935;28;20227;-73
2022/06/11 11:36:53;;;;;;;0.00;0.00;;;;;;;;;;5066293;28;20306;-73
2022/06/11 11:39:23;;;;;;;0.00;0.00;;;;;;;;;;5063989;28;20347;-75
2022/06/11 11:41:53;;;;;;;0.00;0.00;;;;;;;;;;5068202;28;20376;-74
2022/06/11 11:44:20;;;;;;;0.00;0.00;;;;;;;;;;5067793;28;20206;-74
2022/06/11 11:46:51;;;;;;;0.00;0.00;;;;;;;;;;5068545;28;20276;-74
2022/06/11 11:49:20;;;;;;;0.00;0.00;;;;;;;;;;5067860;28;20242;-75
2022/06/11 11:51:46;;;;;;;0.00;0.00;;;;;;;;;;5069286;28;20239;-73
2022/06/11 11:54:17;;;;;;;0.00;0.00;;;;;;;;;;5068356;28;20236;-72
2022/06/11 11:56:45;;;;;;;0.00;0.00;;;;;;;;;;5067814;28;20243;-74
2022/06/11 11:59:15;;;;;;;0.00;0.00;;;;;;;;;;5067953;28;20208;-74
2022/06/11 12:01:42;;;;;;;0.00;0.00;;;;;;;;;;5067010;28;20255;-74
2022/06/11 12:04:16;;;;;;;0.00;0.00;;;;;;;;;;5068577;28;20204;-74
2022/06/11 12:06:44;;;;;;;0.00;0.00;;;;;;;;;;5067586;28;20566;-71
2022/06/11 12:09:20;;;;;;;0.00;0.00;;;;;;;;;;5067545;28;20286;-72
2022/06/11 12:11:55;;;;;;;0.00;0.00;;;;;;;;;;5068559;28;20463;-73
2022/06/11 12:14:29;;;;;;;0.00;0.00;;;;;;;;;;5066378;28;20192;-73
2022/06/11 12:16:56;;;;;;;0.00;0.00;;;;;;;;;;5069208;28;20235;-72
2022/06/11 12:19:27;;;;;;;0.00;0.00;;;;;;;;;;5066093;28;20291;-72
2022/06/11 12:21:57;;;;;;;0.00;0.00;;;;;;;;;;5068975;28;20239;-73
2022/06/11 12:24:27;;;;;;;0.00;0.00;;;;;;;;;;5065850;28;20263;-71
2022/06/11 12:26:56;;;;;;;0.00;0.00;;;;;;;;;;5068463;28;20505;-72
2022/06/11 12:29:28;;;;;;;0.00;0.00;;;;;;;;;;5065690;28;20577;-71
2022/06/11 12:32:00;;;;;;;0.00;0.00;;;;;;;;;;5068614;28;20250;-72
2022/06/11 12:34:28;;;;;;;0.00;0.00;;;;;;;;;;5065693;28;20211;-72
2022/06/11 12:36:59;;;;;;;0.00;0.00;;;;;;;;;;5068434;28;20235;-72
2022/06/11 12:39:34;;;;;;;0.00;0.00;;;;;;;;;;5065030;28;20202;-72
2022/06/11 12:42:05;;;;;;;0.00;0.00;;;;;;;;;;5069641;28;20322;-71
2022/06/11 12:44:37;;;;;;;0.00;0.00;;;;;;;;;;5064844;28;20760;-72
2022/06/11 12:47:12;;;;;;;0.00;0.00;;;;;;;;;;5069467;28;20443;-74
2022/06/11 12:49:45;;;;;;;0.00;0.00;;;;;;;;;;5064601;28;20271;-73
2022/06/11 12:52:13;;;;;;;0.00;0.00;;;;;;;;;;5068882;28;20330;-72
2022/06/11 12:54:48;;;;;;;0.00;0.00;;;;;;;;;;5064115;28;20230;-71
2022/06/11 12:57:27;;;;;;;0.00;0.00;;;;;;;;;;5069215;28;20576;-72
2022/06/11 12:59:59;;;;;;;0.00;0.00;;;;;;;;;;5064253;28;20282;-74
2022/06/11 13:02:31;;;;;;;0.00;0.00;;;;;;;;;;5069602;28;20314;-75
2022/06/11 13:05:13;;;;;;;0.00;0.00;;;;;;;;;;5063860;28;20204;-72
2022/06/11 13:07:43;;;;;;;0.00;0.00;;;;;;;;;;5044165;28;20265;-72
2022/06/11 13:10:14;;;;;;;0.00;0.00;;;;;;;;;;5044235;28;20235;-73
2022/06/11 13:12:48;;;;;;;0.00;0.00;;;;;;;;;;5036016;28;20203;-74
2022/06/11 13:15:27;;;;;;;0.00;0.00;;;;;;;;;;5055390;28;20364;-73
2022/06/11 13:18:02;;;;;;;0.00;0.00;;;;;;;;;;5076393;28;20235;-73
2022/06/11 13:20:33;;;;;;;0.00;0.00;;;;;;;;;;5056569;28;20238;-73
2022/06/11 13:23:04;;;;;;;0.00;0.00;;;;;;;;;;5075490;28;20210;-73
2022/06/11 13:25:33;;;;;;;0.00;0.00;;;;;;;;;;5057083;28;20243;-74
2022/06/11 13:28:03;;;;;;;0.00;0.00;;;;;;;;;;5075547;28;20594;-73
2022/06/11 13:30:38;;;;;;;0.00;0.00;;;;;;;;;;5056920;28;20494;-75
2022/06/11 13:33:11;;;;;;;0.00;0.00;;;;;;;;;;5074787;28;20259;-73
2022/06/11 13:35:41;;;;;;;0.10;0.10;;;;;;;;;;5056396;28;20245;-72
2022/06/11 13:38:18;;;;;;;0.00;0.00;;;;;;;;;;5075600;28;20208;-73
2022/06/11 13:40:47;;;;;;;0.00;0.00;;;;;;;;;;5057731;28;20469;-73
2022/06/11 13:43:29;;;;;;;0.00;0.00;;;;;;;;;;5073677;28;20271;-71
2022/06/11 13:45:59;;;;;;;0.00;0.00;;;;;;;;;;5059943;28;20247;-72
2022/06/11 13:48:30;;;;;;;0.00;0.00;;;;;;;;;;5071675;28;20266;-72
2022/06/11 13:51:01;;;;;;;0.00;0.00;;;;;;;;;;5059524;28;20504;-72
2022/06/11 13:56:18;;;;;;;0.00;0.00;;;;;;;;;;5061944;28;20246;-73
2022/06/11 13:58:55;;;;;;;0.00;0.00;;;;;;;;;;5068949;28;20270;-72
2022/06/11 14:01:31;;;;;;;0.00;0.00;;;;;;;;;;5062485;28;20252;-74
2022/06/11 14:04:21;;;;;;;0.00;0.00;;;;;;;;;;5067427;28;20200;-71
2022/06/11 14:06:49;;;;;;;0.00;0.00;;;;;;;;;;5055772;28;20518;-73
2022/06/11 14:12:24;;;;;;;0.00;0.00;;;;;;;;;;5067920;28;20257;-71
2022/06/11 14:15:12;;;;;;;0.00;0.00;;;;;;;;;;5063416;28;20445;-73
2022/06/11 14:17:39;;;;;;;0.00;0.00;;;;;;;;;;5058095;28;20219;-74
2022/06/11 14:20:27;;;;;;;0.00;0.00;;;;;;;;;;5054218;28;20200;-74
2022/06/11 14:22:54;;;;;;;0.00;0.00;;;;;;;;;;5056665;28;20215;-74
2022/06/11 14:25:39;;;;;;;0.00;0.00;;;;;;;;;;5054347;28;20231;-73
2022/06/11 14:28:24;;;;;;;0.00;0.00;;;;;;;;;;5073645;28;20240;-73
2022/06/11 14:31:05;;;;;;;0.00;0.00;;;;;;;;;;5058151;28;20239;-70
2022/06/11 14:33:33;;;;;;;0.00;0.00;;;;;;;;;;5070282;28;20451;-71
2022/06/11 14:36:01;;;;;;;0.00;0.00;;;;;;;;;;5059113;28;20404;-70
2022/06/11 14:38:39;;;;;;;0.00;0.00;;;;;;;;;;5070553;28;20518;-69
2022/06/11 14:41:21;;;;;;;0.00;0.00;;;;;;;;;;5060130;28;20477;-69
2022/06/11 14:44:07;;;;;;;0.00;0.00;;;;;;;;;;5068255;28;20208;-76
2022/06/11 14:46:48;;;;;;;0.00;0.00;;;;;;;;;;5062461;28;20239;-74
2022/06/11 14:49:15;;;;;;;0.00;0.00;;;;;;;;;;5064036;28;20523;-73
2022/06/11 14:51:44;;;;;;;0.00;0.00;;;;;;;;;;5063982;28;20259;-71
2022/06/11 14:54:17;;;;;;;0.00;0.00;;;;;;;;;;5064856;28;20275;-67
2022/06/11 14:57:04;;;;;;;0.00;0.00;;;;;;;;;;5064824;28;20313;-68
2022/06/11 14:59:48;;;;;;;0.00;0.00;;;;;;;;;;5062899;28;20518;-68
2022/06/11 15:02:26;;;;;;;0.00;0.00;;;;;;;;;;5067916;28;20472;-68
2022/06/11 15:04:59;;;;;;;0.00;0.00;;;;;;;;;;5062336;28;20192;-67